createdAt,value
2018-12-06T00:01:17.163Z,149.83
2018-12-06T00:03:46.153Z,149.00
2018-12-06T00:06:15.313Z,147.87
2018-12-06T00:08:45.588Z,149.80
2018-12-06T00:11:14.186Z,150.40
2018-12-06T00:13:43.045Z,147.43
2018-12-06T00:16:12.884Z,143.93
2018-12-06T00:18:41.610Z,136.40
2018-12-06T00:21:10.428Z,140.77
2018-12-06T00:23:38.909Z,146.17
2018-12-06T00:26:07.693Z,140.43
2018-12-06T00:28:36.207Z,135.67
2018-12-06T00:31:04.704Z,133.00
2018-12-06T00:33:33.299Z,132.37
2018-12-06T00:36:01.957Z,135.30
2018-12-06T00:38:30.521Z,139.20
2018-12-06T00:40:59.703Z,140.67
2018-12-06T00:43:28.471Z,154.27
2018-12-06T00:45:57.339Z,141.33
2018-12-06T00:48:26.579Z,143.87
2018-12-06T00:50:55.100Z,139.40
2018-12-06T00:53:23.694Z,141.47
2018-12-06T00:55:52.213Z,137.57
2018-12-06T00:58:20.713Z,170.10
2018-12-06T01:00:49.227Z,186.30
2018-12-06T01:03:17.921Z,158.43
2018-12-06T01:05:46.804Z,157.57
2018-12-06T01:08:15.436Z,157.33
2018-12-06T01:10:43.955Z,157.90
2018-12-06T01:13:12.485Z,143.27
2018-12-06T01:15:41.647Z,141.47
2018-12-06T01:18:10.108Z,141.17
2018-12-06T01:20:39.042Z,139.57
2018-12-06T01:23:09.659Z,141.40
2018-12-06T01:25:38.438Z,134.17
2018-12-06T01:28:06.909Z,141.70
2018-12-06T01:30:35.516Z,135.57
2018-12-06T01:33:04.020Z,138.03
2018-12-06T01:35:32.616Z,139.17
2018-12-06T01:38:01.094Z,130.87
2018-12-06T01:40:29.575Z,127.97
2018-12-06T01:42:58.089Z,128.43
2018-12-06T01:45:27.120Z,123.30
2018-12-06T01:47:55.765Z,129.23
2018-12-06T01:50:24.317Z,135.40
2018-12-06T01:52:52.801Z,130.70
2018-12-06T01:55:21.795Z,132.43
2018-12-06T01:57:51.254Z,133.63
2018-12-06T02:00:19.886Z,127.50
2018-12-06T02:02:48.465Z,120.57
2018-12-06T02:05:17.088Z,124.73
2018-12-06T02:07:45.565Z,127.63
2018-12-06T02:10:14.062Z,119.00
2018-12-06T02:12:43.056Z,121.10
2018-12-06T02:15:11.707Z,122.73
2018-12-06T02:17:40.597Z,120.13
2018-12-06T02:20:09.079Z,120.37
2018-12-06T02:22:37.596Z,113.20
2018-12-06T02:25:07.305Z,110.50
2018-12-06T02:27:35.773Z,116.03
2018-12-06T02:30:05.509Z,111.40
2018-12-06T02:32:34.180Z,111.07
2018-12-06T02:35:02.972Z,106.27
2018-12-06T02:37:32.735Z,109.77
2018-12-06T02:40:01.237Z,109.37
2018-12-06T02:42:30.428Z,116.03
2018-12-06T02:44:59.001Z,117.57
2018-12-06T02:47:27.485Z,119.60
2018-12-06T02:49:56.622Z,122.80
2018-12-06T02:52:25.623Z,127.73
2018-12-06T02:54:54.253Z,129.40
2018-12-06T02:57:23.047Z,126.83
2018-12-06T02:59:51.529Z,125.70
2018-12-06T03:02:20.073Z,125.93
2018-12-06T03:04:48.707Z,125.90
2018-12-06T03:07:17.185Z,124.50
2018-12-06T03:09:46.389Z,119.97
2018-12-06T03:12:14.936Z,114.53
2018-12-06T03:14:43.437Z,112.23
2018-12-06T03:17:11.985Z,106.63
2018-12-06T03:19:40.484Z,107.13
2018-12-06T03:22:08.947Z,107.53
2018-12-06T03:24:37.637Z,111.63
2018-12-06T03:27:06.133Z,110.63
2018-12-06T03:29:34.588Z,109.00
2018-12-06T03:32:03.217Z,113.90
2018-12-06T03:34:31.693Z,108.07
2018-12-06T03:37:00.174Z,106.70
2018-12-06T03:39:28.680Z,109.07
2018-12-06T03:41:57.204Z,104.00
2018-12-06T03:44:25.691Z,103.37
2018-12-06T03:46:54.197Z,100.27
2018-12-06T03:49:22.777Z,98.13
2018-12-06T03:51:51.257Z,97.80
2018-12-06T03:54:19.799Z,101.00
2018-12-06T03:56:48.300Z,103.73
2018-12-06T03:59:16.770Z,97.93
2018-12-06T04:01:45.253Z,95.97
2018-12-06T04:04:13.767Z,93.47
2018-12-06T04:06:42.226Z,98.23
2018-12-06T04:09:10.704Z,94.73
2018-12-06T04:11:39.193Z,93.63
2018-12-06T04:14:07.656Z,93.67
2018-12-06T04:16:36.220Z,92.90
2018-12-06T04:19:04.688Z,93.67
2018-12-06T04:21:33.181Z,96.03
2018-12-06T04:24:01.664Z,93.37
2018-12-06T04:26:30.315Z,93.47
2018-12-06T04:28:58.816Z,98.43
2018-12-06T04:31:27.256Z,97.57
2018-12-06T04:33:56.132Z,102.63
2018-12-06T04:36:24.611Z,97.40
2018-12-06T04:38:53.085Z,90.37
2018-12-06T04:41:21.851Z,85.07
2018-12-06T04:43:50.371Z,81.60
2018-12-06T04:46:18.881Z,80.73
2018-12-06T04:48:47.475Z,88.40
2018-12-06T04:51:15.972Z,93.17
2018-12-06T04:53:44.426Z,89.57
2018-12-06T04:56:12.877Z,86.77
2018-12-06T04:58:41.412Z,83.33
2018-12-06T05:01:09.850Z,77.50
2018-12-06T05:03:38.364Z,74.87
2018-12-06T05:06:06.949Z,72.33
2018-12-06T05:08:35.430Z,69.20
2018-12-06T05:11:03.880Z,69.47
2018-12-06T05:13:32.893Z,67.80
2018-12-06T05:16:01.428Z,69.37
2018-12-06T05:18:29.909Z,70.33
2018-12-06T05:20:58.356Z,67.63
2018-12-06T05:23:26.840Z,70.87
2018-12-06T05:25:55.319Z,61.13
2018-12-06T05:28:23.799Z,60.57
2018-12-06T05:30:52.236Z,61.17
2018-12-06T05:33:20.695Z,63.87
2018-12-06T05:35:49.140Z,64.90
2018-12-06T05:38:17.620Z,59.67
2018-12-06T05:40:46.059Z,59.27
2018-12-06T05:43:14.515Z,59.10
2018-12-06T05:45:46.014Z,51.40
2018-12-06T05:48:14.511Z,50.77
2018-12-06T05:50:42.940Z,49.13
2018-12-06T05:53:11.382Z,49.90
2018-12-06T05:55:39.823Z,51.17
2018-12-06T05:58:08.308Z,52.13
2018-12-06T06:00:36.739Z,50.33
2018-12-06T06:03:05.220Z,48.40
2018-12-06T06:05:33.687Z,49.03
2018-12-06T06:08:02.119Z,47.23
2018-12-06T06:10:30.605Z,48.10
2018-12-06T06:12:59.083Z,47.03
2018-12-06T06:15:27.683Z,45.23
2018-12-06T06:17:56.135Z,44.73
2018-12-06T06:20:24.571Z,41.67
2018-12-06T06:22:53.132Z,40.77
2018-12-06T06:25:21.577Z,42.60
2018-12-06T06:27:50.022Z,45.63
2018-12-06T06:30:18.475Z,42.73
2018-12-06T06:32:46.935Z,42.07
2018-12-06T06:35:15.395Z,38.03
2018-12-06T06:37:43.820Z,39.90
2018-12-06T06:40:12.252Z,36.03
2018-12-06T06:42:40.741Z,35.77
2018-12-06T06:45:09.235Z,34.27
2018-12-06T06:47:37.699Z,35.87
2018-12-06T06:50:06.380Z,50.10
2018-12-06T06:52:34.824Z,46.90
2018-12-06T06:55:03.443Z,44.13
2018-12-06T06:57:31.946Z,40.40
2018-12-06T07:00:00.388Z,37.27
2018-12-06T07:02:28.903Z,37.97
2018-12-06T07:04:57.368Z,38.23
2018-12-06T07:07:25.803Z,39.43
2018-12-06T07:09:54.251Z,38.30
2018-12-06T07:12:22.707Z,37.40
2018-12-06T07:14:51.165Z,35.37
2018-12-06T07:17:19.652Z,33.47
2018-12-06T07:19:48.088Z,33.83
2018-12-06T07:22:16.573Z,32.27
2018-12-06T07:24:45.048Z,33.77
2018-12-06T07:27:13.564Z,33.20
2018-12-06T07:29:42.024Z,31.97
2018-12-06T07:32:10.452Z,35.33
2018-12-06T07:34:38.950Z,36.60
2018-12-06T07:37:07.524Z,40.47
2018-12-06T07:39:35.964Z,38.43
2018-12-06T07:42:04.469Z,40.27
2018-12-06T07:44:32.913Z,45.80
2018-12-06T07:47:01.389Z,37.20
2018-12-06T07:49:29.859Z,38.37
2018-12-06T07:51:58.315Z,33.83
2018-12-06T07:54:26.920Z,33.97
2018-12-06T07:56:55.344Z,34.50
2018-12-06T07:59:23.791Z,29.80
2018-12-06T08:01:52.232Z,34.53
2018-12-06T08:04:21.383Z,42.50
2018-12-06T08:06:49.952Z,33.50
2018-12-06T08:09:18.391Z,31.80
2018-12-06T08:11:46.896Z,35.20
2018-12-06T08:14:15.316Z,37.57
2018-12-06T08:16:43.732Z,33.10
2018-12-06T08:19:13.890Z,37.63
2018-12-06T08:21:42.576Z,32.73
2018-12-06T08:24:11.015Z,36.13
2018-12-06T08:26:39.574Z,36.57
2018-12-06T08:29:08.068Z,35.17
2018-12-06T08:31:36.510Z,35.53
2018-12-06T08:34:06.319Z,40.33
2018-12-06T08:36:35.412Z,37.70
2018-12-06T08:39:06.461Z,44.83
2018-12-06T08:41:34.991Z,50.30
2018-12-06T08:44:03.604Z,40.60
2018-12-06T08:46:32.587Z,37.43
2018-12-06T08:49:03.144Z,36.80
2018-12-06T08:51:31.666Z,34.27
2018-12-06T08:54:00.169Z,40.97
2018-12-06T08:56:28.771Z,37.20
2018-12-06T08:58:57.354Z,35.07
2018-12-06T09:01:25.914Z,35.10
2018-12-06T09:03:54.628Z,35.97
2018-12-06T09:06:23.337Z,36.00
2018-12-06T09:08:52.029Z,33.97
2018-12-06T09:11:20.601Z,33.70
2018-12-06T09:13:49.258Z,35.20
2018-12-06T09:16:17.793Z,36.40
2018-12-06T09:18:46.355Z,38.20
2018-12-06T09:21:14.964Z,34.77
2018-12-06T09:23:43.625Z,34.50
2018-12-06T09:26:12.337Z,35.07
2018-12-06T09:28:41.583Z,34.20
2018-12-06T09:31:10.167Z,35.40
2018-12-06T09:33:50.090Z,34.63
2018-12-06T09:36:18.598Z,33.73
2018-12-06T09:38:47.192Z,31.17
2018-12-06T09:41:15.813Z,32.43
2018-12-06T09:43:44.321Z,33.40
2018-12-06T09:46:12.866Z,33.53
2018-12-06T09:48:41.391Z,33.83
2018-12-06T09:51:09.945Z,35.20
2018-12-06T09:53:38.615Z,34.07
2018-12-06T09:56:07.370Z,33.63
2018-12-06T09:58:36.088Z,32.53
2018-12-06T10:01:04.811Z,32.40
2018-12-06T10:03:33.546Z,35.70
2018-12-06T10:06:02.054Z,39.53
2018-12-06T10:08:30.613Z,42.60
2018-12-06T10:10:59.780Z,42.40
2018-12-06T10:13:28.326Z,39.00
2018-12-06T10:15:57.016Z,36.23
2018-12-06T10:18:25.540Z,36.30
2018-12-06T10:20:54.076Z,36.27
2018-12-06T10:23:22.591Z,35.23
2018-12-06T10:25:51.120Z,35.37
2018-12-06T10:28:19.646Z,34.17
2018-12-06T10:30:48.390Z,27.60
2018-12-06T10:33:16.980Z,30.07
2018-12-06T10:35:45.567Z,27.23
2018-12-06T10:38:14.357Z,27.17
2018-12-06T10:40:43.039Z,29.33
2018-12-06T10:43:11.840Z,27.80
2018-12-06T10:45:40.628Z,28.63
2018-12-06T10:48:09.250Z,28.17
2018-12-06T10:50:38.299Z,26.77
2018-12-06T10:53:06.794Z,25.80
2018-12-06T10:55:35.997Z,25.40
2018-12-06T10:58:04.580Z,24.70
2018-12-06T11:00:38.592Z,26.20
2018-12-06T11:03:16.261Z,25.57
2018-12-06T11:05:44.747Z,24.17
2018-12-06T11:08:13.350Z,24.23
2018-12-06T11:10:42.014Z,23.00
2018-12-06T11:13:10.956Z,24.00
2018-12-06T11:15:39.850Z,26.30
2018-12-06T11:18:08.327Z,22.90
2018-12-06T11:20:36.984Z,22.87
2018-12-06T11:23:05.466Z,23.27
2018-12-06T11:25:34.033Z,22.63
2018-12-06T11:28:02.718Z,23.90
2018-12-06T11:30:31.309Z,27.50
2018-12-06T11:32:59.757Z,24.40
2018-12-06T11:35:28.677Z,25.77
2018-12-06T11:37:57.150Z,26.13
2018-12-06T11:40:25.608Z,26.40
2018-12-06T11:42:54.133Z,27.77
2018-12-06T11:45:22.627Z,33.03
2018-12-06T11:47:51.086Z,34.13
2018-12-06T11:50:19.565Z,27.47
2018-12-06T11:52:48.019Z,24.50
2018-12-06T11:55:16.902Z,24.40
2018-12-06T11:57:45.468Z,25.63
2018-12-06T12:00:14.078Z,25.23
2018-12-06T12:02:42.565Z,24.73
2018-12-06T12:05:11.258Z,24.30
2018-12-06T12:07:39.775Z,25.60
2018-12-06T12:10:08.783Z,24.70
2018-12-06T12:12:37.451Z,25.23
2018-12-06T12:15:07.130Z,24.33
2018-12-06T12:17:35.599Z,24.63
2018-12-06T12:20:05.538Z,26.63
2018-12-06T12:22:34.140Z,25.43
2018-12-06T12:25:02.598Z,27.30
2018-12-06T12:27:31.096Z,28.30
2018-12-06T12:29:59.581Z,27.53
2018-12-06T12:32:28.662Z,27.50
2018-12-06T12:34:57.130Z,31.87
2018-12-06T12:37:25.706Z,34.27
2018-12-06T12:39:54.223Z,34.47
2018-12-06T12:42:22.873Z,32.80
2018-12-06T12:44:51.482Z,31.43
2018-12-06T12:47:20.292Z,38.00
2018-12-06T12:49:48.896Z,35.07
2018-12-06T12:52:17.402Z,44.47
2018-12-06T12:54:46.044Z,42.37
2018-12-06T12:57:14.566Z,37.47
2018-12-06T12:59:43.071Z,36.63
2018-12-06T13:02:11.556Z,34.77
2018-12-06T13:04:40.036Z,32.27
2018-12-06T13:07:13.955Z,31.77
2018-12-06T13:09:42.956Z,34.67
2018-12-06T13:12:11.655Z,33.30
2018-12-06T13:14:40.202Z,38.00
2018-12-06T13:17:08.716Z,36.00
2018-12-06T13:19:37.198Z,43.20
2018-12-06T13:22:05.700Z,40.30
2018-12-06T13:24:34.185Z,43.47
2018-12-06T13:27:02.763Z,40.87
2018-12-06T13:29:31.281Z,38.87
2018-12-06T13:31:59.785Z,41.40
2018-12-06T13:34:28.260Z,46.33
2018-12-06T13:36:56.793Z,42.90
2018-12-06T13:39:25.433Z,38.97
2018-12-06T13:41:53.889Z,40.03
2018-12-06T13:44:22.445Z,38.20
2018-12-06T13:46:51.209Z,37.13
2018-12-06T13:49:19.774Z,36.30
2018-12-06T13:51:48.376Z,36.43
2018-12-06T13:54:16.857Z,38.87
2018-12-06T13:56:45.345Z,38.20
2018-12-06T13:59:13.837Z,38.37
2018-12-06T14:01:42.910Z,36.63
2018-12-06T14:04:11.888Z,39.87
2018-12-06T14:06:40.388Z,41.30
2018-12-06T14:09:08.901Z,47.60
2018-12-06T14:11:37.964Z,45.50
2018-12-06T14:14:06.630Z,47.30
2018-12-06T14:16:35.094Z,50.53
2018-12-06T14:19:03.556Z,47.33
2018-12-06T14:21:32.009Z,44.93
2018-12-06T14:24:00.469Z,44.00
2018-12-06T14:26:29.048Z,43.40
2018-12-06T14:28:57.517Z,41.70
2018-12-06T14:31:26.036Z,44.43
2018-12-06T14:33:55.246Z,48.57
2018-12-06T14:36:23.756Z,51.93
2018-12-06T14:39:39.755Z,50.23
2018-12-06T14:42:08.476Z,45.60
2018-12-06T14:44:36.964Z,44.27
2018-12-06T14:47:05.726Z,43.43
2018-12-06T14:49:34.213Z,44.93
2018-12-06T14:52:03.396Z,42.23
2018-12-06T14:54:31.860Z,39.57
2018-12-06T14:57:00.359Z,39.10
2018-12-06T14:59:28.839Z,39.83
2018-12-06T15:01:57.371Z,40.23
2018-12-06T15:04:25.872Z,42.77
2018-12-06T15:06:54.397Z,42.17
2018-12-06T15:09:22.850Z,40.63
2018-12-06T15:11:51.314Z,43.03
2018-12-06T15:14:19.779Z,41.80
2018-12-06T15:16:48.311Z,41.57
2018-12-06T15:19:16.760Z,42.70
2018-12-06T15:21:45.243Z,41.13
2018-12-06T15:24:13.708Z,42.60
2018-12-06T15:26:42.368Z,39.40
2018-12-06T15:29:10.834Z,37.77
2018-12-06T15:31:39.297Z,39.00
2018-12-06T15:34:07.910Z,41.27
2018-12-06T15:36:36.744Z,41.20
2018-12-06T15:39:07.793Z,38.87
2018-12-06T15:41:36.422Z,40.37
2018-12-06T15:44:05.237Z,42.77
2018-12-06T15:46:33.684Z,44.60
2018-12-06T15:49:02.179Z,47.20
2018-12-06T15:51:30.779Z,46.73
2018-12-06T15:53:59.290Z,44.67
2018-12-06T15:56:27.764Z,42.47
2018-12-06T15:58:56.236Z,44.90
2018-12-06T16:01:25.042Z,45.57
2018-12-06T16:03:54.139Z,45.07
2018-12-06T16:06:22.604Z,47.47
2018-12-06T16:08:51.220Z,62.30
2018-12-06T16:11:19.708Z,71.27
2018-12-06T16:13:48.208Z,72.47
2018-12-06T16:16:16.696Z,86.90
2018-12-06T16:18:45.235Z,95.57
2018-12-06T16:21:13.752Z,91.57
2018-12-06T16:23:43.004Z,103.27
2018-12-06T16:26:11.514Z,111.00
2018-12-06T16:28:40.148Z,109.80
2018-12-06T16:31:08.708Z,112.77
2018-12-06T16:33:37.198Z,73.97
2018-12-06T16:36:05.788Z,67.27
2018-12-06T16:38:34.305Z,70.97
2018-12-06T16:41:03.314Z,71.63
2018-12-06T16:43:31.788Z,74.63
2018-12-06T16:46:00.264Z,72.60
2018-12-06T16:48:28.768Z,73.77
2018-12-06T16:50:58.287Z,75.10
2018-12-06T16:53:26.793Z,71.93
2018-12-06T16:55:55.327Z,69.93
2018-12-06T16:58:23.877Z,69.70
2018-12-06T17:00:52.622Z,66.33
2018-12-06T17:03:21.115Z,71.43
2018-12-06T17:05:49.621Z,66.03
2018-12-06T17:08:18.082Z,68.47
2018-12-06T17:10:46.534Z,69.40
2018-12-06T17:13:15.544Z,65.30
2018-12-06T17:15:44.036Z,67.97
2018-12-06T17:18:12.880Z,73.40
2018-12-06T17:20:41.344Z,83.77
2018-12-06T17:23:09.850Z,76.77
2018-12-06T17:25:38.319Z,87.60
2018-12-06T17:28:07.145Z,107.57
2018-12-06T17:30:35.656Z,119.97
2018-12-06T17:33:04.119Z,121.50
2018-12-06T17:35:32.890Z,110.63
2018-12-06T17:38:01.778Z,106.90
2018-12-06T17:40:30.333Z,104.50
2018-12-06T17:42:58.870Z,89.33
2018-12-06T17:45:27.495Z,84.97
2018-12-06T17:47:55.990Z,74.80
2018-12-06T17:50:24.493Z,68.60
2018-12-06T17:52:53.006Z,72.87
2018-12-06T17:55:23.003Z,74.20
2018-12-06T17:57:51.522Z,79.73
2018-12-06T18:00:20.024Z,113.87
2018-12-06T18:02:48.559Z,122.53
2018-12-06T18:05:17.192Z,120.37
2018-12-06T18:07:45.740Z,111.10
2018-12-06T18:10:14.559Z,110.47
2018-12-06T18:12:43.032Z,114.47
2018-12-06T18:15:11.758Z,115.67
2018-12-06T18:17:40.380Z,100.47
2018-12-06T18:20:09.501Z,92.17
2018-12-06T18:22:37.997Z,69.60
2018-12-06T18:25:07.160Z,63.00
2018-12-06T18:27:35.922Z,68.87
2018-12-06T18:30:06.377Z,70.83
2018-12-06T18:32:34.935Z,74.63
2018-12-06T18:35:04.537Z,80.27
2018-12-06T18:37:32.989Z,87.50
2018-12-06T18:40:01.445Z,100.37
2018-12-06T18:42:30.045Z,108.93
2018-12-06T18:44:58.516Z,113.93
2018-12-06T18:47:27.035Z,108.20
2018-12-06T18:49:55.820Z,102.43
2018-12-06T18:52:25.019Z,93.77
2018-12-06T18:54:53.502Z,98.37
2018-12-06T18:57:22.064Z,97.57
2018-12-06T18:59:50.818Z,97.53
2018-12-06T19:02:19.659Z,98.90
2018-12-06T19:04:48.307Z,113.97
2018-12-06T19:07:16.879Z,103.70
2018-12-06T19:09:46.532Z,95.87
2018-12-06T19:12:15.323Z,98.83
2018-12-06T19:14:44.159Z,80.80
2018-12-06T19:17:12.743Z,72.60
2018-12-06T19:19:41.683Z,69.93
2018-12-06T19:22:10.369Z,68.33
2018-12-06T19:24:38.878Z,65.80
2018-12-06T19:27:07.435Z,63.07
2018-12-06T19:29:36.426Z,62.97
2018-12-06T19:32:05.573Z,53.10
2018-12-06T19:34:34.534Z,51.37
2018-12-06T19:37:03.137Z,50.90
2018-12-06T19:39:31.683Z,48.77
2018-12-06T19:42:00.248Z,47.73
2018-12-06T19:44:28.744Z,48.50
2018-12-06T19:46:57.214Z,52.03
2018-12-06T19:49:25.877Z,48.13
2018-12-06T19:51:54.552Z,53.43
2018-12-06T19:54:23.140Z,52.03
2018-12-06T19:56:52.077Z,52.60
2018-12-06T19:59:20.673Z,52.37
2018-12-06T20:01:49.409Z,54.57
2018-12-06T20:04:17.954Z,53.57
2018-12-06T20:06:46.491Z,54.10
2018-12-06T20:09:15.051Z,51.47
2018-12-06T20:11:43.594Z,52.67
2018-12-06T20:14:12.065Z,58.83
2018-12-06T20:16:40.796Z,56.03
2018-12-06T20:19:09.359Z,56.37
2018-12-06T20:21:38.325Z,56.80
2018-12-06T20:24:07.190Z,55.33
2018-12-06T20:26:35.997Z,57.63
2018-12-06T20:29:04.593Z,59.47
2018-12-06T20:31:33.375Z,81.53
2018-12-06T20:34:02.161Z,101.23
2018-12-06T20:36:30.779Z,109.03
2018-12-06T20:38:59.316Z,113.37
2018-12-06T20:41:27.796Z,112.93
2018-12-06T20:43:56.714Z,108.80
2018-12-06T20:46:25.316Z,105.97
2018-12-06T20:48:53.881Z,101.87
2018-12-06T20:51:22.376Z,89.93
2018-12-06T20:53:50.900Z,82.13
2018-12-06T20:56:19.499Z,70.23
2018-12-06T20:58:48.273Z,81.90
2018-12-06T21:01:16.841Z,74.40
2018-12-06T21:03:45.562Z,74.57
2018-12-06T21:06:14.063Z,64.43
2018-12-06T21:08:42.546Z,65.47
2018-12-06T21:11:11.068Z,64.93
2018-12-06T21:13:39.795Z,62.13
2018-12-06T21:16:08.325Z,62.33
2018-12-06T21:18:36.863Z,63.20
2018-12-06T21:21:05.589Z,64.43
2018-12-06T21:23:34.195Z,60.33
2018-12-06T21:26:03.029Z,62.10
2018-12-06T21:28:32.164Z,67.90
2018-12-06T21:31:00.901Z,65.23
2018-12-06T21:33:29.435Z,67.30
2018-12-06T21:35:58.056Z,70.20
2018-12-06T21:38:26.620Z,70.30
2018-12-06T21:40:55.200Z,66.93
2018-12-06T21:43:23.817Z,68.00
2018-12-06T21:45:52.377Z,72.20
2018-12-06T21:48:20.960Z,68.63
2018-12-06T21:50:49.477Z,69.33
2018-12-06T21:53:18.909Z,69.10
2018-12-06T21:55:47.980Z,74.60
2018-12-06T21:58:16.616Z,76.00
2018-12-06T22:00:45.250Z,84.50
2018-12-06T22:03:13.783Z,89.43
2018-12-06T22:05:42.275Z,92.10
2018-12-06T22:08:10.811Z,97.60
2018-12-06T22:10:39.340Z,97.10
2018-12-06T22:13:07.884Z,92.93
2018-12-06T22:15:36.512Z,94.73
2018-12-06T22:18:05.146Z,93.80
2018-12-06T22:20:33.744Z,94.70
2018-12-06T22:23:02.372Z,95.73
2018-12-06T22:25:31.122Z,95.73
2018-12-06T22:27:59.802Z,127.20
2018-12-06T22:30:28.549Z,112.63
2018-12-06T22:32:57.167Z,118.27
2018-12-06T22:35:26.512Z,139.77
2018-12-06T22:37:55.052Z,157.37
2018-12-06T22:40:23.577Z,156.87
2018-12-06T22:42:52.093Z,160.67
2018-12-06T22:46:26.941Z,161.60
2018-12-06T22:48:55.812Z,165.87
2018-12-06T22:51:24.623Z,162.93
2018-12-06T22:53:53.303Z,146.50
2018-12-06T22:56:21.787Z,153.03
2018-12-06T22:58:50.299Z,147.80
2018-12-06T23:01:23.267Z,141.83
2018-12-06T23:03:51.800Z,135.67
2018-12-06T23:06:20.489Z,129.57
2018-12-06T23:08:49.012Z,132.07
2018-12-06T23:11:17.719Z,130.50
2018-12-06T23:13:46.357Z,131.83
2018-12-06T23:16:14.863Z,126.57
2018-12-06T23:18:43.399Z,129.47
2018-12-06T23:21:11.896Z,126.07
2018-12-06T23:23:40.408Z,123.93
2018-12-06T23:26:08.919Z,125.47
2018-12-06T23:28:37.415Z,129.27
2018-12-06T23:31:05.929Z,130.00
2018-12-06T23:33:34.426Z,126.57
2018-12-06T23:36:02.904Z,128.50
2018-12-06T23:38:31.527Z,126.73
2018-12-06T23:41:00.151Z,127.43
2018-12-06T23:43:28.696Z,125.87
2018-12-06T23:45:57.208Z,128.20
2018-12-06T23:48:25.828Z,124.70
2018-12-06T23:51:01.365Z,124.50
2018-12-06T23:53:29.952Z,137.43
2018-12-06T23:55:58.606Z,136.03
2018-12-06T23:58:27.125Z,130.30
